Time;durP1;ratioP1;P1;durP2;ratioP2;P2;SDS_P1;SDS_P2;PMS_P1;PMS_P2;Temp;Humidity;BMP_temperature;BMP_pressure;BME280_temperature;BME280_humidity;BME280_pressure;Samples;Min_cycle;Max_cycle;Signal;HPM_P1;HPM_P2
2023/01/03 00:01:10;;;;;;;11.70;6.17;;;7.30;99.90;;;;;;5014066;28;20181;-82
2023/01/03 00:03:35;;;;;;;14.43;7.40;;;7.30;99.90;;;;;;4995614;28;20227;-82
2023/01/03 00:06:01;;;;;;;13.27;7.53;;;7.30;99.90;;;;;;4976444;28;20241;-82
2023/01/03 00:08:28;;;;;;;9.43;5.53;;;7.30;99.90;;;;;;4977263;28;20194;-83
2023/01/03 00:10:53;;;;;;;9.27;5.27;;;7.20;99.90;;;;;;5013910;28;20730;-82
2023/01/03 00:13:19;;;;;;;12.53;5.90;;;7.20;99.90;;;;;;5013896;28;20267;-84
2023/01/03 00:15:45;;;;;;;7.13;5.60;;;7.20;99.90;;;;;;4995692;28;20578;-84
2023/01/03 00:18:10;;;;;;;12.93;6.13;;;7.20;99.90;;;;;;4955737;28;20190;-83
2023/01/03 00:20:36;;;;;;;12.07;6.77;;;7.10;99.90;;;;;;4976908;28;20210;-82
2023/01/03 00:23:02;;;;;;;12.03;6.13;;;7.10;99.90;;;;;;4993893;28;20212;-85
2023/01/03 00:25:28;;;;;;;11.70;7.00;;;7.10;99.90;;;;;;4944890;28;20189;-82
2023/01/03 00:27:54;;;;;;;14.27;6.53;;;7.10;99.90;;;;;;4994367;28;20174;-82
2023/01/03 00:30:20;;;;;;;11.27;6.43;;;7.10;99.90;;;;;;4993724;28;20203;-82
2023/01/03 00:32:45;;;;;;;12.63;5.67;;;7.10;99.90;;;;;;4976779;28;20293;-82
2023/01/03 00:35:11;;;;;;;13.20;7.37;;;7.10;99.90;;;;;;4994022;28;20702;-82
2023/01/03 00:37:37;;;;;;;12.80;6.20;;;7.00;99.90;;;;;;4994068;28;20230;-82
2023/01/03 00:40:03;;;;;;;12.00;6.87;;;7.00;99.90;;;;;;4993962;28;20181;-82
2023/01/03 00:43:27;;;;;;;12.47;6.50;;;7.00;99.90;;;;;;4993851;28;20671;-82
2023/01/03 00:45:14;;;;;;;11.83;6.47;;;6.90;99.90;;;;;;4978905;28;20240;-85
2023/01/03 00:47:40;;;;;;;17.60;6.73;;;6.90;99.90;;;;;;4994165;28;20213;-85
2023/01/03 00:50:06;;;;;;;17.27;7.83;;;6.90;99.90;;;;;;4960536;28;20178;-85
2023/01/03 00:52:31;;;;;;;14.03;5.40;;;6.90;99.90;;;;;;4994101;28;20181;-84
2023/01/03 00:54:57;;;;;;;13.13;6.87;;;6.80;99.90;;;;;;4976484;28;20189;-84
2023/01/03 00:57:23;;;;;;;12.97;5.93;;;6.80;99.90;;;;;;4976465;28;20181;-84
2023/01/03 00:59:48;;;;;;;11.30;6.00;;;6.80;99.90;;;;;;4976694;28;20535;-82
2023/01/03 01:02:14;;;;;;;8.80;5.87;;;6.80;99.90;;;;;;4993672;28;20546;-84
2023/01/03 01:04:40;;;;;;;11.10;5.87;;;6.80;99.90;;;;;;4960688;28;20657;-84
2023/01/03 01:07:05;;;;;;;15.03;7.20;;;6.80;99.90;;;;;;4960031;28;20233;-84
2023/01/03 01:09:36;;;;;;;15.07;7.33;;;6.80;99.90;;;;;;4976437;28;20186;-84
2023/01/03 01:12:03;;;;;;;13.93;6.17;;;6.80;99.90;;;;;;4994089;28;20267;-85
2023/01/03 01:14:32;;;;;;;14.87;7.37;;;6.70;99.90;;;;;;4976516;28;20240;-85
2023/01/03 01:17:01;;;;;;;12.87;6.87;;;6.70;99.90;;;;;;4994968;28;20189;-84
2023/01/03 01:19:33;;;;;;;12.97;7.93;;;6.70;99.90;;;;;;4997194;28;20228;-82
2023/01/03 01:21:59;;;;;;;12.93;7.07;;;6.60;99.90;;;;;;4997722;28;20170;-82
2023/01/03 01:24:25;;;;;;;11.07;7.17;;;6.60;99.90;;;;;;4997475;28;20661;-82
2023/01/03 01:26:51;;;;;;;11.07;6.57;;;6.60;99.90;;;;;;4997340;28;20237;-82
2023/01/03 01:29:17;;;;;;;19.87;7.77;;;6.50;99.90;;;;;;4997356;28;20174;-82
2023/01/03 01:31:44;;;;;;;9.00;6.27;;;6.50;99.90;;;;;;4997708;28;20261;-82
2023/01/03 01:34:11;;;;;;;12.83;7.03;;;6.50;99.90;;;;;;4979879;28;20178;-84
2023/01/03 01:36:40;;;;;;;15.97;6.50;;;6.40;99.90;;;;;;4980054;28;20182;-84
2023/01/03 01:39:10;;;;;;;13.87;8.00;;;6.40;99.90;;;;;;4997293;28;20235;-86
2023/01/03 01:44:54;;;;;;;16.97;8.10;;;6.40;99.90;;;;;;4968584;28;20236;-84
2023/01/03 01:47:23;;;;;;;11.00;6.73;;;6.40;99.90;;;;;;4943721;28;20189;-84
2023/01/03 01:50:11;;;;;;;10.53;6.00;;;6.40;99.90;;;;;;4979822;28;20523;-84
2023/01/03 01:52:41;;;;;;;11.00;7.57;;;6.40;99.90;;;;;;4996368;28;20285;-84
2023/01/03 01:55:11;;;;;;;13.80;7.80;;;6.40;99.90;;;;;;4997130;28;20196;-84
2023/01/03 01:57:38;;;;;;;12.30;7.43;;;6.40;99.90;;;;;;4980306;28;20181;-84
2023/01/03 02:00:07;;;;;;;9.77;5.80;;;6.50;99.90;;;;;;4997118;28;20190;-84
2023/01/03 02:02:32;;;;;;;9.63;6.27;;;6.40;99.90;;;;;;4996987;28;20272;-84
2023/01/03 02:04:59;;;;;;;11.57;6.87;;;6.40;99.90;;;;;;4996665;28;20182;-84
2023/01/03 02:07:25;;;;;;;9.27;5.50;;;6.40;99.90;;;;;;4979284;28;20668;-84
2023/01/03 02:09:54;;;;;;;25.43;7.47;;;6.40;99.90;;;;;;4996772;28;20264;-84
2023/01/03 02:15:20;;;;;;;16.27;6.10;;;6.40;99.90;;;;;;4996566;28;20185;-85
2023/01/03 02:18:45;;;;;;;15.90;6.80;;;6.40;99.90;;;;;;4979156;28;20182;-82
2023/01/03 02:21:47;;;;;;;20.53;6.73;;;6.30;99.90;;;;;;4898718;29;20288;-82
2023/01/03 02:24:16;;;;;;;9.83;4.70;;;6.30;99.90;;;;;;4996218;28;20205;-82
2023/01/03 02:27:19;;;;;;;11.60;5.73;;;6.30;99.90;;;;;;4996546;28;20192;-84
2023/01/03 02:30:03;;;;;;;12.33;7.00;;;6.20;99.90;;;;;;4979190;28;20192;-83
2023/01/03 02:32:32;;;;;;;17.67;8.37;;;6.20;99.90;;;;;;4978751;28;20189;-84
2023/01/03 02:35:04;;;;;;;16.73;7.03;;;6.20;99.90;;;;;;4981248;28;20186;-84
2023/01/03 02:37:34;;;;;;;10.67;5.97;;;6.20;99.90;;;;;;4981275;28;20650;-84
2023/01/03 02:40:13;;;;;;;16.93;7.67;;;6.10;99.90;;;;;;4998767;28;20178;-84
2023/01/03 02:45:31;;;;;;;9.50;5.23;;;6.20;99.90;;;;;;5020458;28;20223;-85
2023/01/03 02:48:06;;;;;;;16.57;5.73;;;6.30;99.90;;;;;;5020636;28;20225;-84
2023/01/03 02:50:39;;;;;;;8.53;5.23;;;6.40;99.90;;;;;;5003366;28;20169;-84
2023/01/03 02:53:08;;;;;;;15.47;6.60;;;6.30;99.90;;;;;;5012004;28;20189;-84
2023/01/03 02:55:36;;;;;;;15.07;7.50;;;6.30;99.90;;;;;;4998383;28;20178;-84
2023/01/03 02:58:08;;;;;;;9.07;7.03;;;6.30;99.90;;;;;;5000719;28;20265;-84
2023/01/03 03:00:41;;;;;;;14.03;8.23;;;6.30;99.90;;;;;;5012666;28;20166;-84
2023/01/03 03:03:12;;;;;;;14.23;5.93;;;6.30;99.90;;;;;;5018513;28;21045;-84
2023/01/03 03:06:05;;;;;;;10.73;6.70;;;6.30;99.90;;;;;;5017903;28;20233;-84
2023/01/03 03:08:31;;;;;;;14.23;6.93;;;6.20;99.90;;;;;;5001318;28;20189;-84
2023/01/03 03:13:57;;;;;;;15.67;8.00;;;6.20;99.90;;;;;;4980985;28;20236;-84
2023/01/03 03:25:23;;;;;;;17.27;6.80;;;6.20;99.90;;;;;;4992518;28;20200;-84
2023/01/03 03:30:41;;;;;;;11.57;7.83;;;6.20;99.90;;;;;;4995163;28;20232;-84
2023/01/03 03:33:08;;;;;;;9.77;5.73;;;6.20;99.90;;;;;;4995326;28;20178;-82
2023/01/03 03:35:57;;;;;;;11.77;6.23;;;6.20;99.90;;;;;;4977738;28;20182;-84
2023/01/03 03:38:43;;;;;;;12.70;6.60;;;6.20;99.90;;;;;;4994939;28;20170;-85
2023/01/03 03:47:25;;;;;;;9.50;4.77;;;6.30;99.90;;;;;;4995055;28;20177;-84
2023/01/03 03:49:55;;;;;;;10.67;6.57;;;6.30;99.90;;;;;;4977576;28;20540;-84
2023/01/03 03:52:25;;;;;;;13.60;6.13;;;6.40;99.90;;;;;;4994938;28;20173;-84
2023/01/03 03:55:06;;;;;;;13.77;5.83;;;6.40;99.90;;;;;;4995028;28;20624;-84
2023/01/03 03:57:42;;;;;;;7.27;5.60;;;6.50;99.90;;;;;;4993405;28;20654;-84
2023/01/03 04:00:14;;;;;;;9.73;5.87;;;6.50;99.90;;;;;;4977518;28;20181;-84
2023/01/03 04:02:41;;;;;;;11.23;6.13;;;6.50;99.90;;;;;;4994198;28;20276;-84
2023/01/03 04:05:10;;;;;;;7.03;4.57;;;6.60;99.90;;;;;;4994594;28;20218;-85
2023/01/03 04:07:36;;;;;;;10.40;6.60;;;6.70;99.90;;;;;;4994471;28;20194;-84
2023/01/03 04:10:03;;;;;;;11.87;6.33;;;6.70;99.90;;;;;;4961303;28;20204;-83
2023/01/03 04:12:29;;;;;;;11.73;5.73;;;6.70;99.90;;;;;;4994400;28;20182;-84
2023/01/03 04:14:55;;;;;;;11.67;6.83;;;6.70;99.90;;;;;;4994633;28;20178;-84
2023/01/03 04:17:20;;;;;;;7.63;4.67;;;6.70;99.90;;;;;;4977210;28;20208;-84
2023/01/03 04:19:46;;;;;;;11.57;5.77;;;6.70;99.90;;;;;;4994087;28;20185;-85
2023/01/03 04:22:11;;;;;;;11.10;5.70;;;6.70;99.90;;;;;;4994609;28;20588;-85
2023/01/03 04:24:37;;;;;;;13.63;5.60;;;6.80;99.90;;;;;;4993990;28;20647;-85
2023/01/03 04:27:03;;;;;;;6.63;5.33;;;6.80;99.90;;;;;;4994319;28;20265;-85
2023/01/03 04:29:28;;;;;;;11.30;5.70;;;6.80;99.90;;;;;;4944862;28;20182;-87
2023/01/03 04:31:54;;;;;;;10.33;4.83;;;6.80;99.90;;;;;;4976696;28;20236;-83
2023/01/03 04:34:20;;;;;;;13.60;4.83;;;6.80;99.90;;;;;;4977001;28;20182;-82
2023/01/03 04:36:45;;;;;;;6.93;4.37;;;6.90;99.90;;;;;;4976529;28;20182;-82
2023/01/03 04:39:11;;;;;;;10.27;5.53;;;6.90;99.90;;;;;;4994311;28;20182;-82
2023/01/03 04:41:37;;;;;;;14.40;5.87;;;6.90;99.90;;;;;;4960562;28;20181;-84
2023/01/03 04:44:03;;;;;;;11.47;5.47;;;6.90;99.90;;;;;;4994083;28;20206;-84
2023/01/03 04:46:34;;;;;;;8.07;4.43;;;7.00;99.90;;;;;;4994159;28;20181;-84
2023/01/03 04:49:01;;;;;;;11.17;5.60;;;7.00;99.90;;;;;;4994335;28;20173;-84
2023/01/03 04:51:28;;;;;;;7.43;4.50;;;7.10;99.90;;;;;;4993898;28;20182;-84
2023/01/03 04:53:53;;;;;;;8.43;4.77;;;7.00;99.90;;;;;;4976538;28;20189;-85
2023/01/03 04:56:33;;;;;;;11.13;5.67;;;7.00;99.90;;;;;;4976586;28;20177;-85
2023/01/03 04:58:59;;;;;;;8.33;4.20;;;7.00;99.90;;;;;;4976835;28;20181;-84
2023/01/03 05:01:25;;;;;;;5.93;3.37;;;7.00;99.90;;;;;;4993956;28;20204;-84
2023/01/03 05:03:50;;;;;;;5.23;3.23;;;7.10;99.90;;;;;;4993634;28;20198;-84
2023/01/03 05:06:17;;;;;;;7.90;4.33;;;7.10;99.90;;;;;;4983782;28;20233;-85
2023/01/03 05:08:46;;;;;;;8.27;4.53;;;7.00;99.90;;;;;;5004279;28;20597;-84
2023/01/03 05:11:12;;;;;;;6.60;4.47;;;7.10;99.90;;;;;;4991285;28;20182;-85
2023/01/03 05:13:37;;;;;;;5.13;3.87;;;7.00;99.90;;;;;;4993422;28;20193;-85
2023/01/03 05:16:09;;;;;;;8.43;4.37;;;7.00;99.90;;;;;;4993213;28;20186;-85
2023/01/03 05:18:35;;;;;;;7.10;4.00;;;7.00;99.90;;;;;;4991750;28;20285;-86
2023/01/03 05:26:38;;;;;;;11.83;4.60;;;6.90;99.90;;;;;;5006064;28;20228;-84
2023/01/03 05:29:03;;;;;;;8.53;3.90;;;6.90;99.90;;;;;;4995528;28;20246;-83
2023/01/03 05:31:29;;;;;;;9.13;4.80;;;6.80;99.90;;;;;;5012741;28;20626;-84
2023/01/03 05:33:55;;;;;;;5.37;3.37;;;6.80;99.90;;;;;;4995079;28;20634;-85
2023/01/03 05:36:21;;;;;;;6.63;4.43;;;6.80;99.90;;;;;;4994981;28;20231;-84
2023/01/03 05:38:47;;;;;;;12.33;4.43;;;6.80;99.90;;;;;;5006823;28;20185;-84
2023/01/03 05:41:13;;;;;;;8.80;3.20;;;6.80;99.90;;;;;;4995535;28;20608;-84
2023/01/03 05:43:39;;;;;;;10.60;4.57;;;6.80;99.90;;;;;;5000541;28;20216;-86
2023/01/03 05:46:04;;;;;;;6.50;4.13;;;6.80;99.90;;;;;;4986671;28;20231;-84
2023/01/03 05:48:30;;;;;;;4.93;2.97;;;6.80;99.90;;;;;;4994394;28;20533;-84
2023/01/03 05:50:57;;;;;;;9.93;4.47;;;6.80;99.90;;;;;;4988401;28;20197;-84
2023/01/03 05:53:23;;;;;;;13.07;3.97;;;6.80;99.90;;;;;;4992492;28;20280;-84
2023/01/03 05:55:48;;;;;;;5.63;3.97;;;6.80;99.90;;;;;;4991274;28;20594;-85
2023/01/03 05:58:14;;;;;;;10.13;5.20;;;6.80;99.90;;;;;;4992868;28;20182;-85
2023/01/03 06:00:40;;;;;;;10.13;5.43;;;6.70;99.90;;;;;;4992890;28;20534;-84
2023/01/03 06:03:06;;;;;;;22.17;4.63;;;6.70;99.90;;;;;;4992927;28;20241;-84
2023/01/03 06:05:31;;;;;;;7.33;4.17;;;6.70;99.90;;;;;;4996210;28;20229;-84
2023/01/03 06:08:00;;;;;;;10.40;5.40;;;6.70;99.90;;;;;;4987643;28;20585;-84
2023/01/03 06:10:26;;;;;;;6.30;3.50;;;6.70;99.90;;;;;;4994928;28;20229;-84
2023/01/03 06:12:52;;;;;;;15.63;5.83;;;6.70;99.90;;;;;;4978605;28;20210;-85
2023/01/03 06:15:19;;;;;;;10.87;4.60;;;6.70;99.90;;;;;;4978913;28;20214;-84
2023/01/03 06:17:53;;;;;;;6.40;4.07;;;6.70;99.90;;;;;;4996302;28;20232;-82
2023/01/03 06:20:19;;;;;;;5.60;3.80;;;6.70;99.90;;;;;;4949333;28;20240;-83
2023/01/03 06:22:45;;;;;;;4.60;3.47;;;6.60;99.90;;;;;;4978584;28;20305;-83
2023/01/03 06:25:11;;;;;;;8.37;4.10;;;6.60;99.90;;;;;;4978805;28;20276;-83
2023/01/03 06:27:37;;;;;;;7.47;4.23;;;6.70;99.90;;;;;;4996424;28;20623;-85
2023/01/03 06:30:03;;;;;;;3.70;3.37;;;6.60;99.90;;;;;;5013568;28;20199;-83
2023/01/03 06:32:29;;;;;;;8.23;5.43;;;6.70;99.90;;;;;;4987442;28;20209;-84
2023/01/03 06:34:55;;;;;;;4.87;3.27;;;6.70;99.90;;;;;;4998191;28;20184;-84
2023/01/03 06:37:21;;;;;;;9.27;5.47;;;6.70;99.90;;;;;;5015937;28;20185;-83
2023/01/03 06:39:46;;;;;;;8.80;4.47;;;6.70;99.90;;;;;;4982210;28;20181;-85
2023/01/03 06:53:13;;;;;;;7.40;3.63;;;6.70;99.90;;;;;;4998458;28;20668;-83
2023/01/03 06:55:41;;;;;;;7.67;4.20;;;6.70;99.90;;;;;;5015665;28;20173;-83
2023/01/03 06:58:07;;;;;;;9.93;4.33;;;6.70;99.90;;;;;;4992184;28;20193;-84
2023/01/03 07:00:35;;;;;;;6.63;4.40;;;6.70;99.90;;;;;;4995353;28;20182;-83
2023/01/03 07:03:00;;;;;;;9.03;4.13;;;6.80;99.90;;;;;;5008549;28;20286;-83
2023/01/03 07:05:26;;;;;;;3.23;2.90;;;6.90;99.90;;;;;;4996877;28;20615;-84
2023/01/03 07:07:52;;;;;;;10.77;3.60;;;6.90;99.90;;;;;;4993836;28;20201;-84
2023/01/03 07:10:17;;;;;;;4.77;3.33;;;7.00;99.90;;;;;;4963765;28;20253;-84
2023/01/03 07:15:42;;;;;;;4.87;3.20;;;7.10;99.90;;;;;;4964222;28;20683;-84
2023/01/03 07:18:08;;;;;;;7.60;3.13;;;7.20;99.90;;;;;;4990014;28;20244;-84
2023/01/03 07:20:33;;;;;;;5.20;2.73;;;7.30;99.90;;;;;;4970388;28;20218;-83
2023/01/03 07:22:59;;;;;;;4.50;3.07;;;7.30;99.90;;;;;;4978460;28;20209;-83
2023/01/03 07:25:25;;;;;;;5.77;2.83;;;7.40;99.90;;;;;;4974038;28;20197;-84
2023/01/03 07:27:57;;;;;;;4.27;3.17;;;7.50;99.90;;;;;;4990303;28;20182;-84
2023/01/03 07:30:23;;;;;;;4.17;2.77;;;7.60;99.90;;;;;;4977094;28;20182;-83
2023/01/03 07:32:48;;;;;;;5.23;2.20;;;7.70;99.90;;;;;;4977246;28;20189;-84
2023/01/03 07:35:14;;;;;;;8.57;2.90;;;7.70;99.90;;;;;;4977143;28;20232;-85
2023/01/03 07:37:40;;;;;;;5.20;2.80;;;7.90;99.90;;;;;;4994185;28;20182;-84
2023/01/03 07:40:06;;;;;;;9.43;2.50;;;7.90;99.90;;;;;;4993859;28;20184;-83
2023/01/03 07:45:16;;;;;;;3.53;2.40;;;8.00;99.90;;;;;;4993836;28;20320;-83
2023/01/03 07:47:45;;;;;;;7.00;3.07;;;8.10;99.90;;;;;;4976875;28;20711;-84
2023/01/03 07:50:11;;;;;;;4.97;2.50;;;8.20;99.90;;;;;;4993693;28;20189;-84
2023/01/03 07:52:37;;;;;;;4.73;2.17;;;8.20;99.90;;;;;;4976710;28;20182;-84
2023/01/03 07:55:03;;;;;;;5.07;2.70;;;8.30;99.90;;;;;;4985490;28;20220;-84
2023/01/03 07:57:28;;;;;;;3.27;2.10;;;8.40;99.90;;;;;;5004393;28;20654;-84
2023/01/03 07:59:54;;;;;;;4.50;2.97;;;8.50;99.90;;;;;;4969005;28;20189;-84
2023/01/03 08:02:19;;;;;;;7.87;3.47;;;8.50;99.90;;;;;;4985840;28;20178;-83
2023/01/03 08:04:45;;;;;;;5.00;2.83;;;8.50;99.90;;;;;;5003709;28;20193;-84
2023/01/03 08:07:11;;;;;;;4.90;2.80;;;8.60;99.90;;;;;;4986614;28;20586;-84
2023/01/03 08:15:06;;;;;;;2.53;2.07;;;8.70;99.90;;;;;;5001885;28;20208;-83
2023/01/03 08:17:31;;;;;;;5.33;2.67;;;8.70;99.90;;;;;;4984052;28;20269;-84
2023/01/03 08:19:57;;;;;;;3.53;2.30;;;8.80;99.90;;;;;;4983545;28;20273;-84
2023/01/03 08:22:23;;;;;;;2.97;2.27;;;8.90;99.90;;;;;;4975537;28;20205;-84
2023/01/03 08:24:48;;;;;;;3.20;1.93;;;8.90;99.90;;;;;;4981532;28;20591;-84
2023/01/03 08:27:14;;;;;;;3.07;2.13;;;8.90;99.90;;;;;;4976856;28;20623;-84
2023/01/03 08:29:40;;;;;;;3.57;1.93;;;8.80;99.90;;;;;;4983956;28;20209;-84
2023/01/03 08:32:06;;;;;;;5.23;2.13;;;8.80;99.90;;;;;;5001192;28;20200;-84
2023/01/03 08:34:35;;;;;;;5.03;2.20;;;8.80;99.90;;;;;;4996657;28;20320;-84
2023/01/03 08:37:06;;;;;;;2.53;2.03;;;8.70;99.90;;;;;;4995749;28;20231;-85
2023/01/03 08:39:38;;;;;;;3.83;2.23;;;8.70;99.90;;;;;;4980517;28;20181;-84
2023/01/03 08:42:07;;;;;;;2.13;1.80;;;8.70;99.90;;;;;;4986616;28;20268;-85
2023/01/03 08:44:33;;;;;;;2.57;1.83;;;8.90;99.90;;;;;;5018831;28;20201;-83
2023/01/03 08:47:01;;;;;;;2.47;2.10;;;8.90;99.90;;;;;;5004073;28;20205;-84
2023/01/03 08:49:28;;;;;;;4.50;2.40;;;9.00;99.90;;;;;;5018432;28;20173;-84
2023/01/03 08:51:54;;;;;;;1.90;1.37;;;9.10;99.90;;;;;;5018014;28;20168;-83
2023/01/03 08:54:19;;;;;;;1.27;1.17;;;9.10;99.90;;;;;;5001008;28;20284;-83
2023/01/03 08:56:45;;;;;;;2.10;1.60;;;9.20;99.90;;;;;;4995200;28;20189;-85
2023/01/03 08:59:11;;;;;;;2.03;1.77;;;9.10;99.90;;;;;;5000789;28;20182;-84
2023/01/03 09:01:36;;;;;;;3.17;2.15;;;9.10;99.90;;;;;;5018158;28;20193;-87
2023/01/03 09:04:04;;;;;;;2.63;1.48;;;9.20;99.90;;;;;;5005340;28;20264;-84
2023/01/03 09:06:29;;;;;;;1.83;1.73;;;9.20;99.90;;;;;;5003287;28;20292;-85
2023/01/03 09:08:55;;;;;;;2.23;1.77;;;9.20;99.90;;;;;;5010520;28;20227;-84
2023/01/03 09:11:21;;;;;;;6.20;1.70;;;;;;;;;;4989518;28;20617;-85
2023/01/03 09:13:47;;;;;;;2.13;1.37;;;9.30;99.90;;;;;;4976865;28;20284;-84
2023/01/03 09:16:15;;;;;;;2.08;1.90;;;9.30;99.90;;;;;;4986044;28;20553;-84
2023/01/03 09:18:41;;;;;;;4.60;2.23;;;9.30;99.90;;;;;;4981265;28;20695;-82
2023/01/03 09:21:07;;;;;;;5.80;2.30;;;9.30;99.90;;;;;;4979487;28;20535;-82
2023/01/03 09:23:34;;;;;;;2.47;2.10;;;9.30;99.90;;;;;;4988947;28;20259;-83
2023/01/03 09:26:00;;;;;;;3.63;2.03;;;9.20;99.90;;;;;;4979849;28;20185;-83
2023/01/03 09:28:26;;;;;;;2.53;2.07;;;9.20;99.90;;;;;;4995400;28;20544;-83
2023/01/03 09:30:52;;;;;;;2.20;1.97;;;9.10;99.90;;;;;;5012961;28;20181;-83
2023/01/03 09:33:18;;;;;;;2.73;1.67;;;9.10;99.90;;;;;;5012840;28;20697;-83
2023/01/03 09:35:43;;;;;;;1.63;1.53;;;9.10;99.90;;;;;;4979486;28;20276;-83
2023/01/03 09:38:09;;;;;;;4.33;2.23;;;9.00;99.90;;;;;;4997133;28;20181;-83
2023/01/03 09:40:43;;;;;;;3.72;2.38;;;9.00;99.90;;;;;;5018145;28;20185;-83
2023/01/03 09:43:16;;;;;;;5.00;2.20;;;9.00;99.90;;;;;;5016361;28;20215;-84
2023/01/03 09:45:58;;;;;;;3.63;2.40;;;8.90;99.90;;;;;;5016408;28;20522;-83
2023/01/03 09:48:45;;;;;;;5.37;3.17;;;8.90;99.90;;;;;;5016002;28;20661;-83
2023/01/03 10:05:45;;;;;;;4.90;2.17;;;8.90;99.90;;;;;;4996453;28;20244;-83
2023/01/03 10:08:52;;;;;;;6.30;2.90;;;8.90;99.90;;;;;;4997219;28;20260;-84
2023/01/03 10:11:22;;;;;;;3.40;3.10;;;9.00;99.90;;;;;;4988587;28;20196;-83
2023/01/03 10:14:09;;;;;;;3.80;3.20;;;9.00;99.90;;;;;;5006826;28;20244;-84
2023/01/03 10:17:00;;;;;;;3.53;1.67;;;9.10;99.90;;;;;;4996903;28;20402;-84
2023/01/03 10:19:52;;;;;;;4.87;2.47;;;9.00;99.90;;;;;;4994081;28;20295;-84
2023/01/03 10:22:22;;;;;;;6.20;3.90;;;9.10;99.90;;;;;;5000324;28;20181;-84
2023/01/03 10:25:10;;;;;;;4.93;2.30;;;9.10;99.90;;;;;;4992742;28;20186;-84
2023/01/03 10:27:47;;;;;;;5.30;2.47;;;8.90;99.90;;;;;;5006432;28;20197;-83
2023/01/03 10:30:32;;;;;;;8.13;2.80;;;9.10;99.90;;;;;;5001878;28;20174;-84
2023/01/03 10:33:17;;;;;;;3.93;2.70;;;9.20;99.90;;;;;;5002769;28;20192;-84
2023/01/03 10:35:43;;;;;;;2.63;1.80;;;9.30;99.90;;;;;;4984378;28;20235;-84
2023/01/03 10:38:09;;;;;;;3.47;2.47;;;9.30;99.90;;;;;;4994281;28;20640;-84
2023/01/03 10:40:49;;;;;;;5.93;2.20;;;9.40;99.90;;;;;;4990682;28;20209;-84
2023/01/03 10:43:15;;;;;;;3.10;2.03;;;9.40;99.90;;;;;;4995133;28;20205;-85
2023/01/03 10:45:59;;;;;;;7.27;2.00;;;9.40;99.90;;;;;;4993053;28;20188;-84
2023/01/03 10:48:34;;;;;;;4.77;2.47;;;9.40;99.90;;;;;;4990751;28;20182;-84
2023/01/03 10:51:03;;;;;;;5.00;2.00;;;9.50;99.90;;;;;;5005265;28;20173;-83
2023/01/03 10:53:33;;;;;;;3.70;2.60;;;9.70;99.90;;;;;;4994585;28;20188;-84
2023/01/03 10:56:00;;;;;;;8.50;3.07;;;9.60;99.90;;;;;;4997509;28;20184;-84
2023/01/03 10:58:27;;;;;;;6.10;2.47;;;9.80;99.90;;;;;;4997215;28;20201;-85
2023/01/03 11:01:10;;;;;;;2.33;2.07;;;9.90;99.90;;;;;;4994752;28;20189;-84
2023/01/03 11:03:38;;;;;;;1.73;1.40;;;9.90;99.90;;;;;;5014156;28;20658;-84
2023/01/03 11:06:04;;;;;;;3.15;1.88;;;10.00;99.90;;;;;;4998004;28;20371;-84
2023/01/03 11:08:36;;;;;;;8.25;5.28;;;10.00;99.90;;;;;;4996224;28;20276;-84
2023/01/03 11:11:02;;;;;;;3.22;2.00;;;10.00;99.90;;;;;;4987667;28;20200;-84
2023/01/03 11:13:38;;;;;;;6.63;3.33;;;10.00;99.90;;;;;;4980180;28;20189;-84
2023/01/03 11:16:15;;;;;;;2.97;1.60;;;10.10;99.90;;;;;;4978688;28;20240;-84
2023/01/03 11:18:43;;;;;;;5.82;1.70;;;10.20;99.90;;;;;;4996916;28;20289;-84
2023/01/03 11:21:27;;;;;;;3.33;2.03;;;10.40;99.90;;;;;;4999375;28;20181;-84
2023/01/03 11:24:20;;;;;;;1.23;1.13;;;10.90;99.90;;;;;;5015284;28;20205;-84
2023/01/03 11:26:49;;;;;;;2.05;1.38;;;11.70;99.90;;;;;;4998847;28;20188;-84
2023/01/03 11:29:53;;;;;;;1.75;1.58;;;11.90;99.90;;;;;;5015335;28;20177;-84
2023/01/03 11:32:24;;;;;;;2.72;1.60;;;12.10;99.90;;;;;;5014827;28;20196;-84
2023/01/03 11:35:14;;;;;;;1.25;0.90;;;12.90;99.90;;;;;;4997773;28;20195;-83
2023/01/03 11:38:10;;;;;;;2.15;1.20;;;13.50;99.90;;;;;;4997335;28;20672;-84
2023/01/03 11:41:11;;;;;;;1.38;0.95;;;13.60;99.90;;;;;;4997136;28;20267;-84
2023/01/03 11:44:17;;;;;;;2.88;1.40;;;13.50;99.90;;;;;;5014692;28;20688;-84
2023/01/03 11:47:04;;;;;;;1.75;1.20;;;13.40;99.90;;;;;;4987341;28;20215;-84
2023/01/03 11:49:45;;;;;;;1.67;1.30;;;13.90;98.50;;;;;;4996793;28;20176;-87
2023/01/03 11:52:38;;;;;;;1.85;1.50;;;13.50;97.00;;;;;;5014630;28;20256;-84
2023/01/03 11:55:07;;;;;;;1.35;1.10;;;13.40;98.80;;;;;;5014666;28;20245;-84
2023/01/03 11:58:01;;;;;;;3.00;1.15;;;13.50;97.00;;;;;;4996731;28;20693;-84
2023/01/03 12:00:51;;;;;;;1.60;1.50;;;13.00;97.40;;;;;;4996335;28;20196;-86
2023/01/03 12:03:38;;;;;;;1.77;1.20;;;12.00;99.90;;;;;;4984612;28;20213;-85
2023/01/03 12:06:07;;;;;;;1.63;1.30;;;11.20;99.90;;;;;;5004834;28;20232;-85
2023/01/03 12:08:47;;;;;;;1.77;1.50;;;10.60;99.90;;;;;;4990810;28;20185;-85
2023/01/03 12:11:34;;;;;;;2.13;1.42;;;10.30;99.90;;;;;;4984722;28;20240;-85
2023/01/03 12:14:35;;;;;;;2.88;1.42;;;10.00;99.90;;;;;;4998563;28;20182;-85
2023/01/03 12:17:16;;;;;;;1.45;1.23;;;9.80;99.90;;;;;;4969703;28;20335;-86
2023/01/03 12:19:49;;;;;;;1.88;1.35;;;9.70;99.90;;;;;;4989293;28;20177;-86
2023/01/03 12:22:36;;;;;;;1.40;1.30;;;9.50;99.90;;;;;;4987256;28;20315;-85
2023/01/03 12:25:29;;;;;;;2.33;1.30;;;9.50;99.90;;;;;;4999565;28;20181;-85
2023/01/03 12:28:10;;;;;;;1.87;1.70;;;9.40;99.90;;;;;;5008380;28;20650;-85
2023/01/03 12:30:45;;;;;;;1.23;1.13;;;9.50;99.90;;;;;;5012018;28;20187;-85
2023/01/03 12:33:31;;;;;;;1.98;1.70;;;9.50;99.90;;;;;;4995557;28;20181;-86
2023/01/03 12:36:00;;;;;;;0.90;0.88;;;9.50;99.90;;;;;;5012576;28;20157;-85
2023/01/03 12:38:31;;;;;;;6.20;2.15;;;9.50;99.90;;;;;;4995449;28;20189;-86
2023/01/03 12:41:18;;;;;;;1.42;1.33;;;9.80;99.90;;;;;;5012744;28;20249;-86
2023/01/03 12:43:51;;;;;;;1.30;1.20;;;10.20;99.90;;;;;;4995728;28;20339;-84
2023/01/03 12:46:25;;;;;;;0.90;0.90;;;10.30;99.90;;;;;;5009365;28;20642;-85
2023/01/03 12:49:13;;;;;;;1.90;1.67;;;10.30;99.90;;;;;;5001861;28;20189;-85
2023/01/03 12:51:39;;;;;;;1.63;1.35;;;10.40;99.90;;;;;;4975338;28;20693;-85
2023/01/03 12:54:14;;;;;;;1.67;1.27;;;10.70;99.90;;;;;;4993773;28;20214;-84
2023/01/03 12:57:04;;;;;;;3.88;1.70;;;11.00;99.90;;;;;;4994061;28;20256;-85
2023/01/03 12:59:49;;;;;;;2.45;1.50;;;10.80;99.90;;;;;;4994343;28;20170;-84
2023/01/03 13:02:26;;;;;;;3.03;1.33;;;10.50;99.90;;;;;;5000738;28;20177;-84
2023/01/03 13:05:12;;;;;;;1.38;1.13;;;10.30;99.90;;;;;;4993570;28;20642;-84
2023/01/03 13:07:40;;;;;;;2.30;1.63;;;9.90;99.90;;;;;;4993771;28;20220;-84
2023/01/03 13:10:11;;;;;;;2.22;1.50;;;9.70;99.90;;;;;;5001163;28;20189;-85
2023/01/03 13:12:40;;;;;;;1.70;1.40;;;9.50;99.90;;;;;;5002350;28;20276;-88
2023/01/03 13:15:17;;;;;;;1.45;1.33;;;9.40;99.90;;;;;;4997825;28;20717;-84
2023/01/03 13:17:46;;;;;;;3.43;1.77;;;9.30;99.90;;;;;;4997708;28;20610;-84
2023/01/03 13:20:29;;;;;;;1.10;1.00;;;9.20;99.90;;;;;;4997848;28;20184;-84
2023/01/03 13:22:57;;;;;;;1.60;1.50;;;9.20;99.90;;;;;;4997813;28;20217;-84
2023/01/03 13:25:25;;;;;;;2.85;1.40;;;9.10;99.90;;;;;;4997707;28;20189;-84
2023/01/03 13:27:54;;;;;;;3.00;1.45;;;9.10;99.90;;;;;;4997773;28;20261;-84
2023/01/03 13:30:38;;;;;;;1.13;1.13;;;9.10;99.90;;;;;;4980068;28;20182;-85
2023/01/03 13:33:10;;;;;;;1.45;1.10;;;9.00;99.90;;;;;;4980130;28;20620;-84
2023/01/03 13:35:45;;;;;;;1.40;1.30;;;8.90;99.90;;;;;;4980256;28;20186;-85
2023/01/03 13:38:30;;;;;;;2.60;1.43;;;8.80;99.90;;;;;;4999825;28;20537;-84
2023/01/03 13:41:01;;;;;;;1.75;1.55;;;8.70;99.90;;;;;;5005386;28;20280;-84
2023/01/03 13:43:33;;;;;;;1.33;1.23;;;8.80;99.90;;;;;;5005845;28;20225;-84
2023/01/03 13:46:05;;;;;;;1.03;0.93;;;8.70;99.90;;;;;;5005496;28;20205;-86
2023/01/03 13:48:38;;;;;;;2.20;1.57;;;8.70;99.90;;;;;;5005463;28;20178;-84
2023/01/03 13:51:03;;;;;;;1.67;1.50;;;8.70;99.90;;;;;;5008476;28;20209;-84
2023/01/03 13:53:34;;;;;;;1.80;1.50;;;8.60;99.90;;;;;;4985758;28;20292;-85
2023/01/03 13:56:21;;;;;;;5.60;1.67;;;8.60;99.90;;;;;;5007562;28;20189;-85
2023/01/03 13:58:51;;;;;;;4.18;1.98;;;8.60;99.90;;;;;;5004502;28;20785;-86
2023/01/03 14:01:34;;;;;;;3.43;1.80;;;8.60;99.90;;;;;;5004141;28;20178;-86
2023/01/03 14:04:14;;;;;;;0.97;0.97;;;8.50;99.90;;;;;;5003546;28;20210;-85
2023/01/03 14:06:43;;;;;;;5.07;2.10;;;8.50;99.90;;;;;;5004473;28;20237;-84
2023/01/03 14:09:30;;;;;;;1.00;1.00;;;8.40;99.90;;;;;;4984449;28;20193;-85
2023/01/03 14:12:08;;;;;;;4.20;1.77;;;8.40;99.90;;;;;;5003124;28;20213;-86
2023/01/03 14:14:38;;;;;;;3.30;1.90;;;8.40;99.90;;;;;;4987140;28;20224;-86
2023/01/03 14:17:14;;;;;;;2.13;1.67;;;8.40;99.90;;;;;;5002375;28;20193;-86
2023/01/03 14:19:50;;;;;;;2.07;1.40;;;8.40;99.90;;;;;;5004189;28;20189;-84
2023/01/03 14:22:21;;;;;;;2.27;1.67;;;8.30;99.90;;;;;;5007843;28;20200;-86
2023/01/03 14:24:56;;;;;;;2.83;1.53;;;8.30;99.90;;;;;;5005830;28;20201;-85
2023/01/03 14:27:36;;;;;;;3.07;1.63;;;8.30;99.90;;;;;;5000882;28;20188;-89